Time;durP1;ratioP1;P1;durP2;ratioP2;P2;SDS_P1;SDS_P2;PMS_P1;PMS_P2;Temp;Humidity;BMP_temperature;BMP_pressure;BME280_temperature;BME280_humidity;BME280_pressure;Samples;Min_cycle;Max_cycle;Signal;HPM_P1;HPM_P2
2023/04/23 05:34:00;;;;;;;56.55;32.75;;;14.70;75.20;;;;;;5330091;23;20062;-75
2023/04/23 05:36:26;;;;;;;66.38;33.42;;;14.60;73.80;;;;;;4970053;28;20051;-72
2023/04/23 05:38:52;;;;;;;64.57;31.83;;;14.70;74.70;;;;;;4962340;28;20054;-76
2023/04/23 05:41:17;;;;;;;62.85;29.85;;;14.70;75.10;;;;;;4970595;28;20055;-75
2023/04/23 05:43:43;;;;;;;65.15;30.25;;;14.80;75.20;;;;;;4969591;28;20058;-73
2023/04/23 05:46:09;;;;;;;59.83;27.83;;;14.90;75.20;;;;;;4975872;28;20481;-73
2023/04/23 05:48:34;;;;;;;72.40;27.00;;;15.00;74.90;;;;;;4976254;28;20046;-73
2023/04/23 05:51:00;;;;;;;48.97;27.33;;;15.10;74.90;;;;;;4973480;28;20049;-75
2023/04/23 05:53:27;;;;;;;53.90;26.92;;;15.20;74.70;;;;;;4968450;28;20054;-77
2023/04/23 05:55:53;;;;;;;53.67;27.48;;;15.30;74.40;;;;;;4972674;28;20039;-74
2023/04/23 05:58:19;;;;;;;44.05;25.70;;;15.40;74.10;;;;;;4977213;28;20047;-75
2023/04/23 06:00:45;;;;;;;50.90;25.45;;;15.60;73.90;;;;;;4977909;28;20060;-74
2023/04/23 06:03:11;;;;;;;45.55;26.65;;;15.70;73.70;;;;;;4980119;28;20365;-74
2023/04/23 06:05:37;;;;;;;44.28;24.70;;;15.70;72.90;;;;;;4962791;28;20053;-76
2023/04/23 06:08:03;;;;;;;55.60;25.55;;;15.80;73.50;;;;;;4980324;28;20051;-74
2023/04/23 06:10:28;;;;;;;49.08;24.45;;;15.80;73.60;;;;;;4979716;28;20448;-74
2023/04/23 06:12:54;;;;;;;41.45;22.95;;;15.80;73.60;;;;;;4962455;28;20069;-76
2023/04/23 06:15:21;;;;;;;52.70;23.70;;;15.80;73.50;;;;;;4962074;28;20051;-76
2023/04/23 06:17:47;;;;;;;35.08;21.70;;;15.80;73.30;;;;;;4979649;28;20055;-77
2023/04/23 06:20:13;;;;;;;40.88;21.50;;;15.80;73.20;;;;;;4979731;28;20461;-76
2023/04/23 06:22:39;;;;;;;37.10;21.95;;;15.80;73.00;;;;;;4952807;28;20087;-73
2023/04/23 06:25:05;;;;;;;40.00;23.38;;;15.80;73.00;;;;;;4952826;28;20093;-73
2023/04/23 06:27:32;;;;;;;37.45;21.77;;;15.80;72.80;;;;;;4969928;28;20441;-74
2023/04/23 06:30:03;;;;;;;31.20;22.10;;;15.70;72.60;;;;;;4943526;28;20055;-73
2023/04/23 06:32:29;;;;;;;36.95;21.77;;;15.70;72.50;;;;;;4967524;28;20043;-75
2023/04/23 06:34:54;;;;;;;33.05;21.38;;;15.70;72.40;;;;;;4968885;28;20070;-74
2023/04/23 06:37:20;;;;;;;31.70;20.77;;;15.70;72.30;;;;;;4969356;28;20051;-74
2023/04/23 06:39:46;;;;;;;37.17;20.63;;;15.60;72.20;;;;;;4967777;28;20046;-73
2023/04/23 06:42:11;;;;;;;32.90;20.52;;;15.60;72.10;;;;;;4971818;28;20074;-74
2023/04/23 06:44:39;;;;;;;30.13;20.40;;;15.60;72.10;;;;;;4968777;28;20490;-73
2023/04/23 06:47:05;;;;;;;34.03;20.35;;;15.60;71.90;;;;;;4967829;28;20047;-75
2023/04/23 06:49:32;;;;;;;30.08;20.50;;;15.60;71.90;;;;;;4969028;28;20039;-75
2023/04/23 06:51:58;;;;;;;27.42;19.95;;;15.60;71.90;;;;;;4964473;28;20058;-74
2023/04/23 06:54:23;;;;;;;35.03;20.75;;;15.50;71.80;;;;;;4959582;28;20142;-74
2023/04/23 06:56:49;;;;;;;30.05;20.67;;;15.50;72.20;;;;;;4959627;28;20366;-74
2023/04/23 06:59:15;;;;;;;33.22;19.42;;;15.50;72.40;;;;;;4978739;28;20077;-80
2023/04/23 07:01:41;;;;;;;27.70;19.05;;;15.50;72.40;;;;;;4978741;28;20043;-78
2023/04/23 07:04:07;;;;;;;34.33;20.33;;;15.50;73.20;;;;;;4960874;28;20046;-77
2023/04/23 07:06:36;;;;;;;29.92;19.35;;;15.40;72.80;;;;;;4978223;28;20047;-76
2023/04/23 07:09:01;;;;;;;32.10;18.88;;;15.40;73.00;;;;;;4960544;28;20050;-77
2023/04/23 07:11:29;;;;;;;28.67;19.25;;;15.40;73.20;;;;;;4978304;28;20118;-78
2023/04/23 07:13:55;;;;;;;27.80;19.17;;;15.40;73.20;;;;;;4978989;28;20054;-79
2023/04/23 07:16:22;;;;;;;28.60;20.15;;;15.40;73.20;;;;;;4978732;28;20109;-78
2023/04/23 07:18:48;;;;;;;29.50;18.45;;;15.40;73.30;;;;;;4961807;28;20445;-77
2023/04/23 07:21:14;;;;;;;28.02;18.98;;;15.40;73.50;;;;;;4962166;28;20072;-77
2023/04/23 07:23:40;;;;;;;29.15;18.40;;;15.40;73.70;;;;;;4961679;28;20516;-79
2023/04/23 07:26:05;;;;;;;37.25;20.05;;;15.30;73.90;;;;;;4979246;28;20053;-73
2023/04/23 07:28:31;;;;;;;40.00;20.73;;;15.40;74.60;;;;;;4978645;28;20452;-77
2023/04/23 07:30:57;;;;;;;47.40;24.05;;;15.40;75.00;;;;;;4977039;28;20046;-77
2023/04/23 07:33:24;;;;;;;34.10;22.92;;;15.40;74.80;;;;;;4974691;28;20043;-76
2023/04/23 07:35:50;;;;;;;50.35;26.40;;;15.50;74.50;;;;;;4958006;28;20461;-73
2023/04/23 07:38:16;;;;;;;43.92;27.63;;;15.40;74.80;;;;;;4973359;28;20035;-74
2023/04/23 07:40:42;;;;;;;52.28;27.33;;;15.50;75.50;;;;;;4969989;28;20078;-76
2023/04/23 07:43:08;;;;;;;43.00;26.23;;;15.50;75.70;;;;;;4975060;28;20361;-77
2023/04/23 07:45:34;;;;;;;41.65;26.42;;;15.50;75.70;;;;;;4960873;28;20061;-74
2023/04/23 07:48:01;;;;;;;44.72;28.20;;;15.50;74.40;;;;;;4977993;28;20050;-77
2023/04/23 07:50:26;;;;;;;36.30;27.75;;;15.50;72.70;;;;;;4960957;28;20050;-74
2023/04/23 07:52:52;;;;;;;36.10;28.00;;;15.40;72.30;;;;;;4971290;28;20188;-74
2023/04/23 07:55:20;;;;;;;35.40;26.75;;;15.30;72.70;;;;;;4977364;28;20054;-76
2023/04/23 07:57:46;;;;;;;34.10;25.23;;;15.30;72.90;;;;;;4978014;28;20378;-77
2023/04/23 08:00:12;;;;;;;31.60;24.67;;;15.30;73.00;;;;;;4977727;28;20051;-76
2023/04/23 08:02:38;;;;;;;32.85;25.08;;;15.30;72.90;;;;;;4978126;28;20133;-74
2023/04/23 08:05:04;;;;;;;32.70;25.85;;;15.30;72.80;;;;;;4977460;28;20097;-73
2023/04/23 08:07:29;;;;;;;30.67;23.60;;;15.30;72.70;;;;;;4977630;28;20464;-74
2023/04/23 08:09:58;;;;;;;27.52;23.40;;;15.30;72.70;;;;;;4977719;28;20046;-73
2023/04/23 08:12:23;;;;;;;36.03;24.40;;;15.30;72.70;;;;;;4977706;28;20454;-73
2023/04/23 08:14:49;;;;;;;27.17;21.67;;;15.40;72.70;;;;;;4977022;28;20057;-73
2023/04/23 08:17:15;;;;;;;28.40;23.65;;;15.40;72.70;;;;;;4977533;28;20335;-73
2023/04/23 08:19:41;;;;;;;27.95;22.27;;;15.40;72.80;;;;;;4977555;28;20050;-74
2023/04/23 08:22:06;;;;;;;25.15;21.83;;;15.40;72.70;;;;;;4976954;28;20050;-77
2023/04/23 08:24:32;;;;;;;26.27;22.00;;;15.40;72.60;;;;;;4977463;28;20046;-78
2023/04/23 08:26:58;;;;;;;24.17;20.60;;;15.40;72.60;;;;;;4977457;28;20345;-79
2023/04/23 08:29:24;;;;;;;25.08;20.90;;;15.40;72.60;;;;;;4945008;28;20053;-78
2023/04/23 08:31:49;;;;;;;23.67;21.10;;;15.40;72.70;;;;;;4960893;28;20055;-79
2023/04/23 08:34:15;;;;;;;23.48;20.15;;;15.40;72.70;;;;;;4976907;28;20445;-78
2023/04/23 08:36:41;;;;;;;22.00;19.23;;;15.40;72.70;;;;;;4944269;28;20056;-77
2023/04/23 08:39:06;;;;;;;20.88;18.55;;;15.50;72.80;;;;;;4977941;28;20152;-78
2023/04/23 08:41:39;;;;;;;20.33;17.50;;;15.50;72.80;;;;;;4976638;28;20053;-78
2023/04/23 08:44:24;;;;;;;23.55;18.73;;;15.50;72.80;;;;;;4976467;28;20062;-78
2023/04/23 08:46:53;;;;;;;21.88;18.75;;;15.50;72.80;;;;;;4977154;28;20039;-79
2023/04/23 08:49:19;;;;;;;20.38;16.92;;;15.50;72.80;;;;;;4960706;28;20112;-80
2023/04/23 08:51:51;;;;;;;20.30;17.08;;;15.60;72.90;;;;;;4960193;28;20125;-79
2023/04/23 08:54:27;;;;;;;18.10;16.20;;;15.50;72.80;;;;;;4976126;28;20457;-78
2023/04/23 08:56:57;;;;;;;18.27;16.30;;;15.60;73.00;;;;;;4976823;28;20046;-76
2023/04/23 08:59:28;;;;;;;19.42;16.67;;;15.50;72.80;;;;;;4977007;28;20042;-78
2023/04/23 09:01:55;;;;;;;21.08;16.23;;;15.50;72.80;;;;;;4976457;28;20058;-75
2023/04/23 09:04:21;;;;;;;19.08;15.80;;;15.60;72.90;;;;;;4976627;28;20047;-74
2023/04/23 09:06:46;;;;;;;18.73;15.98;;;15.60;72.90;;;;;;4976795;28;20082;-73
2023/04/23 09:09:16;;;;;;;22.23;16.13;;;15.60;73.00;;;;;;4976431;28;20046;-75
2023/04/23 09:11:42;;;;;;;18.55;15.10;;;15.60;73.00;;;;;;4962791;28;20114;-75
2023/04/23 09:14:09;;;;;;;20.40;15.32;;;15.60;73.00;;;;;;4957403;29;20055;-74
2023/04/23 09:16:35;;;;;;;15.15;13.02;;;15.60;73.00;;;;;;4957262;29;20365;-74
2023/04/23 09:19:02;;;;;;;16.08;14.18;;;15.60;72.90;;;;;;4957374;29;20105;-74
2023/04/23 09:21:27;;;;;;;16.13;13.70;;;15.60;72.90;;;;;;4971772;28;20054;-73
2023/04/23 09:23:53;;;;;;;15.20;12.77;;;15.60;72.90;;;;;;4976218;28;20520;-75
2023/04/23 09:26:23;;;;;;;14.13;12.52;;;15.60;72.90;;;;;;4976659;28;20547;-73
2023/04/23 09:28:50;;;;;;;14.13;12.05;;;15.60;72.80;;;;;;4976246;28;20469;-76
2023/04/23 09:31:20;;;;;;;16.52;12.25;;;15.70;72.80;;;;;;4976379;28;20043;-73
2023/04/23 09:33:51;;;;;;;13.77;11.05;;;15.70;72.80;;;;;;4975756;28;20122;-76
2023/04/23 09:36:20;;;;;;;14.38;12.18;;;15.70;72.80;;;;;;4976398;28;20058;-75
2023/04/23 09:38:46;;;;;;;13.77;11.32;;;15.70;73.40;;;;;;4976964;28;20047;-75
2023/04/23 09:41:23;;;;;;;13.75;11.45;;;15.70;72.80;;;;;;4976617;28;20055;-75
2023/04/23 09:43:51;;;;;;;13.02;10.52;;;15.70;72.70;;;;;;4976462;28;20043;-74
2023/04/23 09:46:19;;;;;;;12.45;10.52;;;15.70;72.70;;;;;;4976321;28;20054;-74
2023/04/23 09:48:46;;;;;;;12.65;10.25;;;15.70;72.70;;;;;;4976061;28;20058;-77
2023/04/23 09:51:15;;;;;;;15.88;10.52;;;15.70;72.70;;;;;;4958640;28;20082;-75
2023/04/23 09:53:42;;;;;;;10.88;9.38;;;15.70;72.60;;;;;;4975929;28;20043;-73
2023/04/23 09:56:08;;;;;;;11.57;9.65;;;15.70;72.40;;;;;;4976356;28;20057;-74
2023/04/23 09:58:34;;;;;;;11.48;9.10;;;15.70;72.40;;;;;;4976329;28;20055;-80
2023/04/23 10:01:07;;;;;;;13.32;9.13;;;15.70;72.50;;;;;;4959187;28;20126;-79
2023/04/23 10:03:40;;;;;;;18.70;9.15;;;15.70;72.60;;;;;;4942151;28;20046;-75
2023/04/23 10:06:06;;;;;;;21.35;9.10;;;15.70;72.90;;;;;;4975506;28;20047;-75
2023/04/23 10:08:32;;;;;;;21.85;9.38;;;15.70;72.90;;;;;;4975942;28;20353;-75
2023/04/23 10:10:58;;;;;;;20.45;8.70;;;15.70;73.00;;;;;;4958715;28;20134;-74
2023/04/23 10:13:25;;;;;;;20.75;10.02;;;15.70;73.20;;;;;;4967826;28;20035;-76
2023/04/23 10:15:51;;;;;;;17.17;9.30;;;15.70;73.30;;;;;;4974852;28;20043;-82
2023/04/23 10:18:19;;;;;;;21.55;9.15;;;15.70;73.40;;;;;;4959102;28;20078;-82
2023/04/23 10:20:45;;;;;;;26.35;9.85;;;15.70;73.40;;;;;;4975654;28;20054;-78
2023/04/23 10:23:11;;;;;;;19.38;9.07;;;15.80;73.50;;;;;;4958868;28;20042;-77
2023/04/23 10:25:39;;;;;;;20.08;7.90;;;15.80;73.30;;;;;;4975937;28;20051;-77
2023/04/23 10:28:08;;;;;;;14.18;7.57;;;15.80;73.20;;;;;;4976039;28;20086;-77
2023/04/23 10:30:35;;;;;;;16.13;7.78;;;15.80;73.00;;;;;;4974488;28;20094;-77
2023/04/23 10:33:03;;;;;;;12.13;7.22;;;15.80;73.00;;;;;;4975637;28;20050;-77
2023/04/23 10:35:29;;;;;;;12.98;7.05;;;15.80;72.80;;;;;;4975459;28;20067;-83
2023/04/23 10:37:55;;;;;;;14.30;7.15;;;15.80;72.80;;;;;;4975296;28;20054;-78
2023/04/23 10:40:28;;;;;;;25.80;7.75;;;15.80;72.80;;;;;;4958422;28;20039;-79
2023/04/23 10:42:54;;;;;;;14.80;7.57;;;15.80;72.20;;;;;;4975743;28;20145;-78
2023/04/23 10:45:20;;;;;;;13.63;6.68;;;15.80;72.10;;;;;;4961738;28;20047;-80
2023/04/23 10:47:46;;;;;;;14.88;6.65;;;15.80;72.20;;;;;;4945906;28;20058;-80
2023/04/23 10:50:24;;;;;;;12.57;6.22;;;15.80;72.20;;;;;;4961453;28;20034;-78
2023/04/23 10:52:52;;;;;;;17.58;6.32;;;15.80;72.00;;;;;;4946023;28;20059;-79
2023/04/23 10:55:23;;;;;;;14.02;6.00;;;15.80;72.00;;;;;;4961634;28;20090;-79
2023/04/23 10:58:02;;;;;;;12.50;6.05;;;15.90;72.00;;;;;;4962126;28;20050;-80
2023/04/23 11:00:47;;;;;;;15.45;6.20;;;15.80;72.00;;;;;;4945787;28;20141;-79
2023/04/23 11:03:34;;;;;;;11.80;6.40;;;15.80;71.90;;;;;;4978790;28;20081;-79
2023/04/23 11:06:04;;;;;;;12.75;6.05;;;15.90;71.90;;;;;;4960151;28;20477;-76
2023/04/23 11:08:31;;;;;;;15.77;5.30;;;15.90;71.80;;;;;;4961869;28;20120;-75
2023/04/23 11:10:58;;;;;;;7.95;4.60;;;15.90;71.70;;;;;;4978548;28;20042;-79
2023/04/23 11:13:27;;;;;;;11.15;4.43;;;15.90;71.70;;;;;;4978580;28;20034;-81
2023/04/23 11:16:17;;;;;;;10.23;4.93;;;15.90;72.30;;;;;;4978406;28;20188;-79
2023/04/23 11:19:02;;;;;;;11.82;4.78;;;15.90;71.70;;;;;;4961667;28;20129;-80
2023/04/23 11:22:07;;;;;;;10.23;4.80;;;15.90;71.70;;;;;;4978011;28;20062;-81
2023/04/23 11:24:44;;;;;;;10.68;4.57;;;15.90;71.70;;;;;;4961604;28;20094;-80
2023/04/23 11:27:17;;;;;;;11.35;4.40;;;15.90;71.70;;;;;;4961110;28;20097;-79
2023/04/23 11:29:45;;;;;;;8.37;3.93;;;15.90;71.60;;;;;;4961771;28;20151;-79
2023/04/23 11:32:15;;;;;;;7.95;3.78;;;15.90;71.70;;;;;;4961208;28;20054;-81
2023/04/23 11:34:43;;;;;;;9.88;4.03;;;15.90;71.60;;;;;;4977637;28;20090;-78
2023/04/23 11:37:10;;;;;;;7.30;3.83;;;15.90;71.60;;;;;;4978311;28;20051;-80
2023/04/23 11:39:36;;;;;;;7.30;4.18;;;15.90;71.60;;;;;;4978415;28;20051;-79
2023/04/23 11:42:03;;;;;;;7.43;3.58;;;15.90;71.60;;;;;;4978344;28;20047;-79
2023/04/23 11:44:30;;;;;;;7.85;3.45;;;15.90;71.60;;;;;;4977794;28;20078;-79
2023/04/23 11:47:00;;;;;;;6.82;3.60;;;15.90;71.50;;;;;;4961140;28;20051;-81
2023/04/23 11:49:25;;;;;;;7.53;3.17;;;15.90;71.50;;;;;;4977377;28;20057;-78
2023/04/23 11:51:51;;;;;;;5.68;2.85;;;15.90;71.50;;;;;;4957252;29;20051;-75
2023/04/23 11:54:17;;;;;;;5.35;2.72;;;15.90;71.50;;;;;;4960921;28;20429;-79
2023/04/23 11:56:43;;;;;;;13.93;3.40;;;15.90;71.60;;;;;;4977564;28;20134;-75
2023/04/23 11:59:09;;;;;;;14.57;3.25;;;15.90;71.80;;;;;;4949419;29;20051;-76
2023/04/23 12:01:42;;;;;;;13.75;3.53;;;16.00;71.80;;;;;;4970082;28;20125;-82
2023/04/23 12:04:12;;;;;;;11.65;2.60;;;16.00;71.50;;;;;;4943431;28;20055;-77
2023/04/23 12:06:41;;;;;;;11.30;3.53;;;16.00;71.40;;;;;;4968609;28;20047;-80
2023/04/23 12:09:06;;;;;;;16.98;3.63;;;16.00;71.60;;;;;;4968327;28;20436;-80
2023/04/23 12:11:34;;;;;;;14.38;3.17;;;16.00;71.90;;;;;;4955278;28;20125;-81
2023/04/23 12:14:03;;;;;;;10.35;3.20;;;16.00;72.10;;;;;;4944530;28;20043;-79
2023/04/23 12:16:34;;;;;;;13.02;2.70;;;16.00;72.20;;;;;;4977574;28;20334;-80
2023/04/23 12:19:00;;;;;;;12.85;4.20;;;16.00;72.30;;;;;;4977309;28;20038;-78
2023/04/23 12:21:28;;;;;;;17.13;3.95;;;16.00;72.60;;;;;;4976947;28;20354;-77
2023/04/23 12:23:57;;;;;;;18.98;3.83;;;16.00;72.80;;;;;;4977423;28;20051;-76
2023/04/23 12:26:24;;;;;;;17.73;3.70;;;16.00;72.60;;;;;;4977439;28;20414;-81
2023/04/23 12:28:51;;;;;;;19.20;3.40;;;16.10;72.40;;;;;;4959399;28;20458;-82
2023/04/23 12:31:21;;;;;;;12.85;3.47;;;16.10;72.30;;;;;;4952767;29;20517;-80
2023/04/23 12:33:52;;;;;;;8.05;2.85;;;16.00;72.20;;;;;;4950701;29;20410;-80
2023/04/23 12:36:17;;;;;;;17.60;3.30;;;16.10;72.20;;;;;;4970535;28;20050;-78
2023/04/23 12:38:43;;;;;;;18.60;3.30;;;16.10;72.30;;;;;;4959844;28;20069;-81
2023/04/23 12:41:09;;;;;;;17.83;3.40;;;16.10;72.30;;;;;;4977065;28;20053;-80
2023/04/23 12:43:35;;;;;;;12.25;3.25;;;16.00;72.20;;;;;;4953734;28;20050;-78
2023/04/23 12:46:01;;;;;;;10.95;2.78;;;16.10;71.80;;;;;;4976523;28;20047;-80
2023/04/23 12:48:27;;;;;;;9.25;2.92;;;16.10;71.20;;;;;;4950545;29;20378;-77
2023/04/23 12:50:53;;;;;;;8.02;2.28;;;16.20;69.00;;;;;;4972579;28;20054;-77
2023/04/23 12:53:19;;;;;;;6.93;1.88;;;16.20;68.40;;;;;;4970748;28;20042;-77
2023/04/23 12:55:45;;;;;;;6.63;1.92;;;16.20;68.60;;;;;;4976384;28;20034;-80
2023/04/23 12:58:10;;;;;;;6.97;1.95;;;16.10;68.40;;;;;;4959234;28;20500;-81
2023/04/23 13:00:36;;;;;;;6.07;1.80;;;16.10;68.80;;;;;;4959468;28;20043;-80
2023/04/23 13:03:02;;;;;;;6.28;1.70;;;16.10;69.00;;;;;;4969864;28;20469;-81
2023/04/23 13:05:28;;;;;;;14.38;2.28;;;16.10;69.20;;;;;;4924597;29;20077;-81
2023/04/23 13:07:54;;;;;;;10.32;2.30;;;16.10;69.50;;;;;;4939610;29;20438;-81
2023/04/23 13:10:23;;;;;;;5.93;2.35;;;16.00;69.50;;;;;;4942846;28;20043;-81
2023/04/23 13:12:49;;;;;;;5.18;1.38;;;16.10;69.50;;;;;;4959556;28;20417;-80
2023/04/23 13:15:15;;;;;;;4.53;1.80;;;16.10;69.70;;;;;;4955141;29;20129;-81
2023/04/23 13:17:41;;;;;;;7.72;1.83;;;16.10;69.90;;;;;;4951999;29;20126;-80
2023/04/23 13:20:10;;;;;;;6.97;2.15;;;16.10;70.10;;;;;;4949332;28;20050;-81
2023/04/23 13:22:35;;;;;;;6.68;2.00;;;16.10;70.20;;;;;;4943049;28;20450;-82
2023/04/23 13:25:01;;;;;;;10.90;1.90;;;16.10;70.40;;;;;;4958993;28;20054;-75
2023/04/23 13:27:28;;;;;;;8.25;1.77;;;16.10;70.40;;;;;;4976270;28;20046;-77
2023/04/23 13:29:54;;;;;;;6.75;2.42;;;16.10;70.20;;;;;;4976282;28;20058;-78
2023/04/23 13:32:22;;;;;;;7.95;2.10;;;16.10;69.80;;;;;;4976199;28;20086;-78
2023/04/23 13:34:48;;;;;;;7.55;1.92;;;16.20;68.50;;;;;;4976198;28;20064;-76
2023/04/23 13:37:14;;;;;;;6.35;2.10;;;16.10;67.20;;;;;;4975630;28;20439;-75
2023/04/23 13:39:41;;;;;;;7.80;2.25;;;16.20;66.90;;;;;;4976151;28;20063;-74
2023/04/23 13:42:06;;;;;;;8.38;1.50;;;16.10;66.20;;;;;;4976211;28;20054;-76
2023/04/23 13:44:32;;;;;;;6.60;1.70;;;16.20;65.60;;;;;;4971728;28;20054;-78
2023/04/23 13:46:58;;;;;;;6.80;1.92;;;16.20;65.70;;;;;;4952393;29;20135;-78
2023/04/23 13:49:25;;;;;;;8.90;1.90;;;16.20;65.90;;;;;;4966955;28;20342;-81
2023/04/23 13:51:57;;;;;;;7.88;2.10;;;16.20;66.20;;;;;;4975972;28;20113;-78
2023/04/23 13:54:26;;;;;;;10.55;1.60;;;16.20;66.10;;;;;;4943801;28;20346;-80
2023/04/23 13:56:55;;;;;;;15.07;2.10;;;16.10;66.90;;;;;;4958919;28;20051;-78
2023/04/23 13:59:22;;;;;;;8.18;1.75;;;16.20;66.30;;;;;;4975911;28;20177;-82
2023/04/23 14:01:48;;;;;;;9.73;2.05;;;16.20;66.50;;;;;;4975185;28;20512;-80
2023/04/23 14:04:14;;;;;;;11.63;2.10;;;16.20;66.80;;;;;;4958624;28;20085;-78
2023/04/23 14:06:40;;;;;;;12.63;2.20;;;16.20;67.00;;;;;;4943343;28;20050;-75
2023/04/23 14:09:06;;;;;;;21.17;2.22;;;16.20;67.30;;;;;;4975685;28;20047;-73
2023/04/23 14:11:32;;;;;;;23.08;3.25;;;16.20;67.90;;;;;;4975832;28;20038;-75
2023/04/23 14:13:59;;;;;;;16.17;3.05;;;16.20;68.50;;;;;;4976051;28;20061;-76
2023/04/23 14:16:25;;;;;;;12.95;2.20;;;16.20;68.80;;;;;;4959225;28;20050;-74
2023/04/23 14:18:51;;;;;;;20.88;3.00;;;16.30;68.90;;;;;;4975128;28;20077;-74
2023/04/23 14:21:17;;;;;;;11.70;2.92;;;16.30;68.60;;;;;;4978700;28;20057;-72
2023/04/23 14:23:46;;;;;;;14.48;2.38;;;16.30;68.20;;;;;;4979638;28;20050;-77
2023/04/23 14:26:28;;;;;;;18.60;2.90;;;16.30;68.20;;;;;;4978347;28;20370;-76
2023/04/23 14:28:57;;;;;;;17.95;2.50;;;16.30;68.30;;;;;;4962511;28;20057;-75
2023/04/23 14:31:22;;;;;;;11.77;5.85;;;16.30;68.60;;;;;;4959774;29;20055;-75
2023/04/23 14:33:48;;;;;;;20.30;10.80;;;16.30;69.10;;;;;;4962040;28;20053;-73
2023/04/23 14:36:14;;;;;;;23.23;12.32;;;16.30;69.70;;;;;;4978333;28;20481;-76
2023/04/23 14:38:40;;;;;;;21.60;8.98;;;16.40;70.20;;;;;;4979016;28;20058;-76
2023/04/23 14:41:05;;;;;;;36.42;8.88;;;16.30;70.40;;;;;;4979382;28;20112;-77
2023/04/23 14:43:31;;;;;;;27.25;8.45;;;16.40;70.50;;;;;;4979681;28;20054;-77
2023/04/23 14:45:57;;;;;;;25.00;7.05;;;16.40;70.50;;;;;;4962188;28;20146;-76
2023/04/23 14:48:22;;;;;;;19.80;7.03;;;16.40;71.10;;;;;;4979112;28;20050;-77
2023/04/23 14:50:48;;;;;;;19.05;7.35;;;16.40;71.20;;;;;;4979058;28;20366;-76
2023/04/23 14:53:14;;;;;;;20.10;6.75;;;16.50;71.70;;;;;;4961970;28;20055;-78
2023/04/23 14:55:44;;;;;;;22.58;6.78;;;16.50;71.80;;;;;;4955231;29;20055;-76
2023/04/23 14:58:10;;;;;;;18.27;6.57;;;16.50;72.40;;;;;;4945995;28;20050;-76
2023/04/23 15:00:36;;;;;;;20.65;6.88;;;16.50;71.90;;;;;;4962092;28;20047;-76
2023/04/23 15:03:07;;;;;;;23.42;6.00;;;16.50;72.10;;;;;;4961817;28;20370;-76
2023/04/23 15:05:32;;;;;;;18.63;7.55;;;16.60;72.60;;;;;;4978652;28;20055;-75
2023/04/23 15:07:58;;;;;;;21.20;5.95;;;16.50;73.40;;;;;;4978731;28;20053;-80
2023/04/23 15:10:24;;;;;;;16.77;6.22;;;16.60;72.90;;;;;;4978630;28;20038;-76
2023/04/23 15:13:05;;;;;;;16.42;5.82;;;16.60;73.00;;;;;;4961636;28;20050;-77
2023/04/23 15:15:49;;;;;;;26.45;5.55;;;16.60;72.80;;;;;;4978653;28;20050;-77
2023/04/23 15:18:15;;;;;;;12.35;4.43;;;16.60;72.50;;;;;;4978566;28;20039;-76
2023/04/23 15:20:42;;;;;;;13.10;5.07;;;16.60;72.10;;;;;;4978857;28;20058;-77
2023/04/23 15:23:09;;;;;;;12.05;4.68;;;16.60;72.20;;;;;;4978719;28;20062;-76
2023/04/23 15:25:35;;;;;;;12.52;4.07;;;16.70;71.90;;;;;;4978525;28;20097;-75
2023/04/23 15:28:02;;;;;;;11.55;3.25;;;16.60;71.50;;;;;;4978290;28;20046;-76
2023/04/23 15:30:28;;;;;;;11.43;3.72;;;16.60;71.30;;;;;;4977496;28;20055;-76
2023/04/23 15:32:54;;;;;;;8.90;3.10;;;16.60;71.10;;;;;;4978491;28;20047;-76
2023/04/23 15:35:21;;;;;;;9.27;3.05;;;16.60;70.90;;;;;;4977773;28;20063;-75
2023/04/23 15:37:47;;;;;;;7.10;3.10;;;16.60;70.80;;;;;;4978817;28;20054;-75
2023/04/23 15:40:13;;;;;;;10.32;2.70;;;16.60;70.80;;;;;;4961578;28;20058;-75
2023/04/23 15:42:40;;;;;;;9.95;2.95;;;16.60;70.30;;;;;;4978322;28;20043;-75
2023/04/23 15:45:08;;;;;;;6.78;2.75;;;16.60;70.60;;;;;;4978362;28;20042;-76
2023/04/23 15:47:33;;;;;;;9.13;3.15;;;16.60;69.60;;;;;;4961017;28;20059;-75
2023/04/23 15:50:01;;;;;;;7.28;3.03;;;16.60;69.40;;;;;;4961366;28;20073;-75
2023/04/23 15:52:27;;;;;;;10.32;2.47;;;16.60;69.40;;;;;;4977905;28;20054;-76
2023/04/23 15:54:53;;;;;;;7.32;2.50;;;16.60;69.20;;;;;;4960564;28;20117;-76
2023/04/23 15:57:19;;;;;;;6.60;2.55;;;16.60;69.20;;;;;;4977866;28;20121;-77
2023/04/23 15:59:45;;;;;;;9.98;2.45;;;16.60;69.10;;;;;;4966191;28;20058;-78
2023/04/23 16:02:11;;;;;;;9.68;2.42;;;16.60;69.20;;;;;;4977615;28;20109;-78
2023/04/23 16:04:37;;;;;;;9.32;2.92;;;16.60;69.20;;;;;;4975815;28;20122;-79
2023/04/23 16:07:02;;;;;;;8.40;2.67;;;16.60;69.10;;;;;;4977749;28;20058;-77
2023/04/23 16:09:29;;;;;;;7.68;2.25;;;16.60;69.30;;;;;;4977543;28;20493;-77
2023/04/23 16:11:55;;;;;;;7.72;2.70;;;16.50;69.40;;;;;;4977338;28;20091;-76
2023/04/23 16:14:20;;;;;;;7.93;2.00;;;16.50;69.40;;;;;;4977758;28;20126;-75
2023/04/23 16:16:46;;;;;;;7.32;2.53;;;16.50;69.70;;;;;;4977370;28;20078;-79
2023/04/23 16:19:12;;;;;;;11.05;2.58;;;16.50;69.70;;;;;;4973844;28;20129;-79
2023/04/23 16:21:38;;;;;;;6.68;2.40;;;16.50;69.90;;;;;;4960541;28;20051;-79
2023/04/23 16:24:04;;;;;;;10.20;2.30;;;16.50;70.20;;;;;;4977234;28;20142;-79
2023/04/23 16:26:30;;;;;;;12.52;2.53;;;16.50;70.40;;;;;;4977121;28;20454;-79
2023/04/23 16:28:56;;;;;;;17.63;3.38;;;16.50;70.50;;;;;;4976974;28;20042;-81
2023/04/23 16:31:22;;;;;;;15.30;3.13;;;16.50;70.70;;;;;;4977203;28;20101;-80
2023/04/23 16:33:47;;;;;;;21.52;3.25;;;16.50;70.90;;;;;;4959388;28;20466;-78
2023/04/23 16:36:13;;;;;;;12.00;3.10;;;16.50;71.00;;;;;;4976267;28;20054;-77
2023/04/23 16:38:39;;;;;;;49.38;6.47;;;16.60;71.30;;;;;;4976975;28;20453;-79
2023/04/23 16:41:05;;;;;;;24.05;4.03;;;16.60;71.30;;;;;;4976722;28;20520;-77
2023/04/23 16:43:31;;;;;;;21.55;4.03;;;16.60;70.90;;;;;;4976986;28;20094;-77
2023/04/23 16:45:57;;;;;;;17.70;3.47;;;16.50;70.40;;;;;;4977029;28;20042;-78
2023/04/23 16:48:22;;;;;;;12.57;3.63;;;16.50;70.40;;;;;;4977052;28;20164;-78
2023/04/23 16:50:48;;;;;;;14.85;3.65;;;16.50;70.50;;;;;;4977249;28;20117;-77
2023/04/23 16:53:14;;;;;;;14.10;3.15;;;16.50;70.40;;;;;;4976885;28;20085;-76
2023/04/23 16:55:40;;;;;;;15.40;2.65;;;16.50;70.30;;;;;;4976946;28;20457;-76
2023/04/23 16:58:05;;;;;;;10.90;3.08;;;16.50;70.30;;;;;;4977112;28;20454;-77
2023/04/23 17:00:31;;;;;;;12.73;3.08;;;16.50;70.30;;;;;;4977462;28;20074;-76
2023/04/23 17:02:57;;;;;;;14.65;3.20;;;16.50;70.30;;;;;;4976476;28;20076;-77
2023/04/23 17:05:23;;;;;;;15.55;2.95;;;16.40;70.30;;;;;;4975883;28;20047;-78
2023/04/23 17:07:51;;;;;;;14.27;2.92;;;16.50;70.40;;;;;;4960099;28;20058;-78
2023/04/23 17:10:18;;;;;;;12.50;3.00;;;16.40;70.30;;;;;;4977143;28;20401;-78
2023/04/23 17:12:44;;;;;;;13.60;2.90;;;16.40;70.40;;;;;;4976803;28;20057;-77
2023/04/23 17:15:10;;;;;;;13.63;2.80;;;16.40;70.40;;;;;;4977188;28;20430;-77
2023/04/23 17:17:37;;;;;;;10.88;2.90;;;16.40;70.40;;;;;;4976403;28;20050;-76
2023/04/23 17:20:06;;;;;;;8.68;2.35;;;16.40;70.40;;;;;;4976898;28;20046;-76
2023/04/23 17:22:33;;;;;;;12.35;2.75;;;16.40;70.40;;;;;;4959541;28;20125;-78
2023/04/23 17:24:59;;;;;;;11.13;2.53;;;16.40;70.40;;;;;;4976553;28;20051;-77
2023/04/23 17:27:24;;;;;;;8.80;2.08;;;16.40;70.40;;;;;;4976538;28;20046;-78
2023/04/23 17:29:50;;;;;;;13.00;2.60;;;16.40;70.30;;;;;;4976267;28;20058;-77
2023/04/23 17:32:16;;;;;;;7.72;2.45;;;16.40;70.40;;;;;;4976768;28;20350;-78
2023/04/23 17:34:42;;;;;;;16.02;3.15;;;16.40;70.50;;;;;;4976030;28;20482;-77
2023/04/23 17:37:07;;;;;;;12.05;2.05;;;16.40;70.50;;;;;;4976529;28;20067;-77
2023/04/23 17:39:33;;;;;;;7.05;2.13;;;16.40;70.40;;;;;;4976443;28;20051;-78
2023/04/23 17:41:59;;;;;;;9.40;2.35;;;16.40;70.40;;;;;;4959433;28;20501;-77
2023/04/23 17:44:24;;;;;;;11.40;2.35;;;16.40;70.40;;;;;;4976389;28;20046;-77
2023/04/23 17:46:53;;;;;;;10.20;2.78;;;16.40;70.40;;;;;;4976119;28;20042;-77
2023/04/23 17:49:21;;;;;;;6.97;1.92;;;16.40;70.30;;;;;;4976149;28;20046;-78
2023/04/23 17:51:47;;;;;;;10.18;1.73;;;16.40;70.40;;;;;;4976333;28;20354;-78
2023/04/23 17:54:12;;;;;;;9.15;2.25;;;16.30;70.30;;;;;;4977365;28;20046;-79
2023/04/23 17:56:38;;;;;;;7.47;1.60;;;16.40;70.40;;;;;;4971313;28;20035;-79
2023/04/23 17:59:04;;;;;;;4.50;2.00;;;16.30;70.40;;;;;;4979913;28;20418;-80
2023/04/23 18:01:30;;;;;;;4.85;1.83;;;16.30;70.20;;;;;;4962816;28;20127;-79
2023/04/23 18:03:56;;;;;;;3.80;1.60;;;16.30;70.40;;;;;;4962875;28;20522;-78
2023/04/23 18:06:22;;;;;;;3.38;1.50;;;16.20;70.50;;;;;;4963012;28;20126;-80
2023/04/23 18:08:48;;;;;;;3.45;1.88;;;16.10;70.50;;;;;;4980496;28;20063;-79